createdAt,value
2017-08-29T00:00:05.826Z,0
2017-08-29T00:00:46.293Z,0
2017-08-29T00:01:26.751Z,0
2017-08-29T00:02:07.202Z,0
2017-08-29T00:02:47.660Z,0
2017-08-29T00:03:28.115Z,0
2017-08-29T00:04:08.571Z,0
2017-08-29T00:04:49.030Z,0
2017-08-29T00:05:29.481Z,0
2017-08-29T00:06:09.940Z,0
2017-08-29T00:06:50.392Z,0
2017-08-29T00:07:30.845Z,0
2017-08-29T00:08:11.311Z,0
2017-08-29T00:08:51.750Z,0
2017-08-29T00:09:32.208Z,0
2017-08-29T00:10:12.672Z,0
2017-08-29T00:10:53.122Z,0
2017-08-29T00:11:33.574Z,0
2017-08-29T00:12:14.037Z,0
2017-08-29T00:12:54.492Z,0
2017-08-29T00:13:34.950Z,0
2017-08-29T00:14:15.419Z,0
2017-08-29T00:14:55.873Z,0
2017-08-29T00:15:36.327Z,0
2017-08-29T00:16:16.785Z,0
2017-08-29T00:16:57.236Z,0
2017-08-29T00:17:37.793Z,0
2017-08-29T00:18:18.251Z,0
2017-08-29T00:18:58.711Z,0
2017-08-29T00:19:39.280Z,0
2017-08-29T00:20:19.747Z,0
2017-08-29T00:21:00.193Z,0
2017-08-29T00:21:40.642Z,0
2017-08-29T00:22:21.318Z,0
2017-08-29T00:23:01.775Z,0
2017-08-29T00:23:42.250Z,0
2017-08-29T00:24:22.789Z,0
2017-08-29T00:25:03.244Z,0
2017-08-29T00:25:43.704Z,0
2017-08-29T00:26:24.165Z,0
2017-08-29T00:27:04.629Z,0
2017-08-29T00:27:45.081Z,0
2017-08-29T00:28:25.530Z,0
2017-08-29T00:29:06.051Z,0
2017-08-29T00:29:46.510Z,0
2017-08-29T00:30:26.977Z,0
2017-08-29T00:31:07.437Z,0
2017-08-29T00:31:47.925Z,0
2017-08-29T00:32:28.380Z,0
2017-08-29T00:33:08.828Z,0
2017-08-29T00:33:49.287Z,0
2017-08-29T00:34:29.740Z,0
2017-08-29T00:35:10.202Z,0
2017-08-29T00:35:50.661Z,0
2017-08-29T00:36:31.117Z,0
2017-08-29T00:37:11.570Z,0
2017-08-29T00:37:52.027Z,0
2017-08-29T00:38:32.476Z,0
2017-08-29T00:39:12.934Z,0
2017-08-29T00:39:53.388Z,0
2017-08-29T00:40:33.869Z,0
2017-08-29T00:41:14.328Z,0
2017-08-29T00:41:54.785Z,0
2017-08-29T00:42:35.244Z,0
2017-08-29T00:43:15.704Z,0
2017-08-29T00:43:56.162Z,0
2017-08-29T00:44:36.611Z,0
2017-08-29T00:45:17.161Z,0
2017-08-29T00:45:57.619Z,0
2017-08-29T00:46:38.058Z,0
2017-08-29T00:47:18.508Z,0
2017-08-29T00:47:58.958Z,0
2017-08-29T00:48:39.414Z,0
2017-08-29T00:49:19.988Z,0
2017-08-29T00:50:00.434Z,0
2017-08-29T00:50:40.892Z,0
2017-08-29T00:51:21.352Z,0
2017-08-29T00:52:01.804Z,0
2017-08-29T00:52:42.267Z,0
2017-08-29T00:53:22.729Z,0
2017-08-29T00:54:03.184Z,0
2017-08-29T00:54:43.635Z,0
2017-08-29T00:55:24.096Z,0
2017-08-29T00:56:04.551Z,0
2017-08-29T00:56:45.006Z,0
2017-08-29T00:57:25.459Z,0
2017-08-29T00:58:05.912Z,0
2017-08-29T00:58:46.363Z,0
2017-08-29T00:59:26.823Z,0
2017-08-29T01:00:07.275Z,0
2017-08-29T01:00:47.740Z,0
2017-08-29T01:01:28.202Z,0
2017-08-29T01:02:08.668Z,0
2017-08-29T01:02:49.118Z,0
2017-08-29T01:03:29.566Z,0
2017-08-29T01:04:10.024Z,0
2017-08-29T01:04:50.482Z,0
2017-08-29T01:05:30.959Z,0
2017-08-29T01:06:11.389Z,0
2017-08-29T01:06:51.842Z,0
2017-08-29T01:07:32.292Z,0
2017-08-29T01:08:12.743Z,0
2017-08-29T01:08:53.221Z,0
2017-08-29T01:10:50.910Z,0
2017-08-29T01:11:31.361Z,0
2017-08-29T01:12:11.811Z,0
2017-08-29T01:12:52.258Z,0
2017-08-29T01:13:32.712Z,0
2017-08-29T01:14:13.169Z,0
2017-08-29T01:14:53.621Z,0
2017-08-29T01:15:34.073Z,0
2017-08-29T01:16:14.532Z,0
2017-08-29T01:16:54.986Z,0
2017-08-29T01:17:35.445Z,0
2017-08-29T01:18:15.896Z,0
2017-08-29T01:18:56.353Z,0
2017-08-29T01:19:36.910Z,0
2017-08-29T01:20:17.366Z,0
2017-08-29T01:20:57.821Z,0
2017-08-29T01:21:38.274Z,0
2017-08-29T01:22:18.728Z,0
2017-08-29T01:22:59.182Z,0
2017-08-29T01:23:39.633Z,0
2017-08-29T01:24:20.093Z,0
2017-08-29T01:25:00.536Z,0
2017-08-29T01:25:40.985Z,0
2017-08-29T01:26:21.437Z,0
2017-08-29T01:27:01.889Z,0
2017-08-29T01:27:42.333Z,0
2017-08-29T01:28:22.785Z,0
2017-08-29T01:29:03.247Z,0
2017-08-29T01:29:43.688Z,0
2017-08-29T01:30:24.136Z,0
2017-08-29T01:31:04.587Z,0
2017-08-29T01:31:45.028Z,0
2017-08-29T01:32:25.493Z,0
2017-08-29T01:33:05.941Z,0
2017-08-29T01:33:46.397Z,0
2017-08-29T01:34:26.858Z,0
2017-08-29T01:35:07.321Z,0
2017-08-29T01:35:47.784Z,0
2017-08-29T01:36:28.240Z,0
2017-08-29T01:37:08.698Z,0
2017-08-29T01:37:49.153Z,0
2017-08-29T01:38:29.615Z,0
2017-08-29T01:39:10.047Z,0
2017-08-29T01:39:50.500Z,0
2017-08-29T01:40:30.964Z,0
2017-08-29T01:41:11.415Z,0
2017-08-29T01:41:51.870Z,0
2017-08-29T01:42:32.324Z,0
2017-08-29T01:43:12.773Z,0
2017-08-29T01:43:53.220Z,0
2017-08-29T01:44:33.673Z,0
2017-08-29T01:45:14.128Z,0
2017-08-29T01:45:54.587Z,0
2017-08-29T01:46:35.043Z,0
2017-08-29T01:47:15.502Z,0
2017-08-29T01:47:55.960Z,0
2017-08-29T01:48:36.420Z,0
2017-08-29T01:49:16.870Z,0
2017-08-29T01:49:57.319Z,0
2017-08-29T01:50:37.766Z,0
2017-08-29T01:51:18.221Z,0
2017-08-29T01:51:58.670Z,0
2017-08-29T01:52:39.129Z,0
2017-08-29T01:53:19.586Z,0
2017-08-29T01:54:00.035Z,0
2017-08-29T01:54:40.493Z,0
2017-08-29T01:55:20.954Z,0
2017-08-29T01:56:01.409Z,0
2017-08-29T01:56:41.865Z,0
2017-08-29T01:57:22.305Z,0
2017-08-29T01:58:02.750Z,0
2017-08-29T01:58:43.312Z,0
2017-08-29T01:59:23.762Z,0
2017-08-29T02:00:04.215Z,0
2017-08-29T02:00:44.676Z,0
2017-08-29T02:01:25.180Z,0
2017-08-29T02:02:06.113Z,0
2017-08-29T02:02:47.531Z,0
2017-08-29T02:03:27.976Z,0
2017-08-29T02:04:08.434Z,0
2017-08-29T02:04:48.890Z,0
2017-08-29T02:05:29.349Z,0
2017-08-29T02:06:09.808Z,0
2017-08-29T02:06:50.276Z,0
2017-08-29T02:07:30.724Z,0
2017-08-29T02:08:11.172Z,0
2017-08-29T02:08:51.624Z,0
2017-08-29T02:09:32.079Z,0
2017-08-29T02:10:12.538Z,0
2017-08-29T02:10:53.003Z,0
2017-08-29T02:11:33.456Z,0
2017-08-29T02:12:13.906Z,0
2017-08-29T02:12:54.360Z,0
2017-08-29T02:13:34.819Z,0
2017-08-29T02:14:15.270Z,0
2017-08-29T02:14:55.745Z,0
2017-08-29T02:15:37.044Z,0
2017-08-29T02:16:17.492Z,0
2017-08-29T02:16:57.944Z,0
2017-08-29T02:17:38.397Z,0
2017-08-29T02:18:18.852Z,0
2017-08-29T02:18:59.305Z,0
2017-08-29T02:19:39.758Z,0
2017-08-29T02:20:20.203Z,0
2017-08-29T02:21:00.661Z,0
2017-08-29T02:21:41.112Z,0
2017-08-29T02:22:21.567Z,0
2017-08-29T02:23:02.027Z,0
2017-08-29T02:23:42.537Z,0
2017-08-29T02:24:22.994Z,0
2017-08-29T02:25:03.449Z,0
2017-08-29T02:25:43.903Z,0
2017-08-29T02:26:24.354Z,0
2017-08-29T02:27:04.835Z,0
2017-08-29T02:27:45.290Z,0
2017-08-29T02:28:25.747Z,0
2017-08-29T02:29:06.202Z,0
2017-08-29T02:29:46.656Z,0
2017-08-29T02:30:27.109Z,0
2017-08-29T02:31:07.591Z,0
2017-08-29T02:31:48.043Z,0
2017-08-29T02:32:28.494Z,0
2017-08-29T02:33:08.945Z,0
2017-08-29T02:33:49.402Z,0
2017-08-29T02:34:29.849Z,0
2017-08-29T02:35:10.298Z,0
2017-08-29T02:35:50.757Z,0
2017-08-29T02:36:31.203Z,0
2017-08-29T02:37:11.661Z,0
2017-08-29T02:37:52.115Z,0
2017-08-29T02:38:32.577Z,0
2017-08-29T02:39:13.029Z,0
2017-08-29T02:39:53.499Z,0
2017-08-29T02:40:33.949Z,0
2017-08-29T02:41:14.413Z,0
2017-08-29T02:41:54.865Z,0
2017-08-29T02:42:35.315Z,0
2017-08-29T02:43:15.828Z,0
2017-08-29T02:43:56.285Z,0
2017-08-29T02:44:36.747Z,0
2017-08-29T02:45:17.206Z,0
2017-08-29T02:45:57.661Z,0
2017-08-29T02:46:38.106Z,0
2017-08-29T02:47:18.564Z,0
2017-08-29T02:47:59.036Z,0
2017-08-29T02:48:39.501Z,0
2017-08-29T02:49:19.950Z,0
2017-08-29T02:50:00.390Z,0
2017-08-29T02:50:40.856Z,0
2017-08-29T02:51:21.304Z,0
2017-08-29T02:52:01.748Z,0
2017-08-29T02:52:42.207Z,0
2017-08-29T02:53:22.665Z,0
2017-08-29T02:54:03.128Z,0
2017-08-29T02:54:43.585Z,0
2017-08-29T02:57:01.528Z,0
2017-08-29T02:57:41.972Z,0
2017-08-29T02:58:22.426Z,0
2017-08-29T02:59:02.880Z,0
2017-08-29T02:59:43.332Z,0
2017-08-29T03:00:23.787Z,0
2017-08-29T03:01:04.246Z,0
2017-08-29T03:01:44.704Z,0
2017-08-29T03:02:25.154Z,0
2017-08-29T03:03:05.610Z,0
2017-08-29T03:03:46.064Z,0
2017-08-29T03:04:26.523Z,0
2017-08-29T03:05:06.973Z,0
2017-08-29T03:05:47.426Z,0
2017-08-29T03:06:27.885Z,0
2017-08-29T03:07:08.344Z,0
2017-08-29T03:07:48.814Z,0
2017-08-29T03:08:30.281Z,0
2017-08-29T03:09:10.742Z,0
2017-08-29T03:09:51.196Z,0
2017-08-29T03:10:31.650Z,0
2017-08-29T03:11:12.093Z,0
2017-08-29T03:11:52.547Z,0
2017-08-29T03:12:32.995Z,0
2017-08-29T03:13:13.453Z,0
2017-08-29T03:13:53.904Z,0
2017-08-29T03:14:34.351Z,0
2017-08-29T03:15:14.804Z,0
2017-08-29T03:15:55.264Z,0
2017-08-29T03:16:35.720Z,0
2017-08-29T03:17:16.233Z,0
2017-08-29T03:17:56.686Z,0
2017-08-29T03:18:37.141Z,0
2017-08-29T03:19:17.600Z,0
2017-08-29T03:19:58.073Z,0
2017-08-29T03:20:38.531Z,0
2017-08-29T03:23:06.703Z,0
2017-08-29T03:23:47.151Z,0
2017-08-29T03:24:27.604Z,0
2017-08-29T03:25:08.088Z,0
2017-08-29T03:25:48.545Z,0
2017-08-29T03:26:28.991Z,0
2017-08-29T03:27:09.567Z,0
2017-08-29T03:27:50.016Z,0
2017-08-29T03:28:30.465Z,0
2017-08-29T03:29:10.920Z,0
2017-08-29T03:29:51.378Z,0
2017-08-29T03:30:31.840Z,0
2017-08-29T03:31:12.274Z,0
2017-08-29T03:31:52.734Z,0
2017-08-29T03:32:33.186Z,0
2017-08-29T03:33:13.648Z,0
2017-08-29T03:33:54.096Z,0
2017-08-29T03:34:34.549Z,0
2017-08-29T03:35:15.014Z,0
2017-08-29T03:35:55.474Z,0
2017-08-29T03:36:35.930Z,0
2017-08-29T03:37:16.382Z,0
2017-08-29T03:37:56.839Z,0
2017-08-29T03:38:37.293Z,0
2017-08-29T03:39:17.746Z,0
2017-08-29T03:39:58.205Z,0
2017-08-29T03:40:38.662Z,0
2017-08-29T03:41:19.121Z,0
2017-08-29T03:41:59.573Z,0
2017-08-29T03:42:40.037Z,0
2017-08-29T03:43:20.490Z,0
2017-08-29T03:44:00.938Z,0
2017-08-29T03:44:41.395Z,0
2017-08-29T03:45:21.855Z,0
2017-08-29T03:46:02.322Z,0
2017-08-29T03:46:42.772Z,0
2017-08-29T03:47:23.226Z,0
2017-08-29T03:48:03.680Z,0
2017-08-29T03:48:44.125Z,0
2017-08-29T03:49:24.578Z,0
2017-08-29T03:50:05.038Z,0
2017-08-29T03:50:45.494Z,0
2017-08-29T03:51:25.947Z,0
2017-08-29T03:52:06.459Z,0
2017-08-29T03:52:46.911Z,0
2017-08-29T03:53:27.361Z,0
2017-08-29T03:54:07.809Z,0
2017-08-29T03:54:48.254Z,0
2017-08-29T03:55:28.726Z,0
2017-08-29T03:56:09.178Z,0
2017-08-29T03:56:49.633Z,0
2017-08-29T03:57:30.089Z,0
2017-08-29T03:58:10.539Z,0
2017-08-29T03:58:50.996Z,0
2017-08-29T03:59:31.453Z,0
2017-08-29T04:00:11.887Z,0
2017-08-29T04:00:52.344Z,0
2017-08-29T04:01:32.801Z,0
2017-08-29T04:02:13.256Z,0
2017-08-29T04:02:53.708Z,0
2017-08-29T04:03:34.159Z,0
2017-08-29T04:04:14.615Z,0
2017-08-29T04:04:55.086Z,0
2017-08-29T04:05:35.537Z,0
2017-08-29T04:06:15.996Z,0
2017-08-29T04:06:56.446Z,0
2017-08-29T04:07:36.888Z,0
2017-08-29T04:08:17.342Z,0
2017-08-29T04:08:57.798Z,0
2017-08-29T04:09:38.250Z,0
2017-08-29T04:10:18.703Z,0
2017-08-29T04:10:59.157Z,0
2017-08-29T04:11:39.618Z,0
2017-08-29T04:12:20.076Z,0
2017-08-29T04:13:00.526Z,0
2017-08-29T04:13:40.990Z,0
2017-08-29T04:15:38.685Z,4
2017-08-29T04:16:19.132Z,4
2017-08-29T04:16:59.585Z,4
2017-08-29T04:17:40.041Z,0
2017-08-29T04:18:20.494Z,0
2017-08-29T04:19:01.027Z,4
2017-08-29T04:19:41.488Z,4
2017-08-29T04:20:21.951Z,4
2017-08-29T04:21:02.418Z,0
2017-08-29T04:21:42.865Z,4
2017-08-29T04:22:23.316Z,4
2017-08-29T04:23:03.774Z,8
2017-08-29T04:23:44.237Z,4
2017-08-29T04:24:24.696Z,8
2017-08-29T04:25:05.146Z,8
2017-08-29T04:25:45.595Z,4
2017-08-29T04:26:26.040Z,8
2017-08-29T04:27:06.497Z,8
2017-08-29T04:27:46.950Z,12
2017-08-29T04:28:27.426Z,12
2017-08-29T04:29:07.880Z,12
2017-08-29T04:29:48.337Z,12
2017-08-29T04:30:28.792Z,12
2017-08-29T04:31:09.247Z,16
2017-08-29T04:31:49.698Z,16
2017-08-29T04:32:30.166Z,16
2017-08-29T04:33:10.625Z,16
2017-08-29T04:33:51.064Z,20
2017-08-29T04:34:31.515Z,24
2017-08-29T04:35:11.963Z,20
2017-08-29T04:35:52.414Z,20
2017-08-29T04:36:32.870Z,24
2017-08-29T04:37:13.331Z,24
2017-08-29T04:37:53.796Z,28
2017-08-29T04:38:34.247Z,28
2017-08-29T04:39:14.700Z,32
2017-08-29T04:39:55.157Z,32
2017-08-29T04:40:35.605Z,32
2017-08-29T04:41:16.061Z,36
2017-08-29T04:41:56.506Z,40
2017-08-29T04:42:37.046Z,40
2017-08-29T04:43:17.504Z,40
2017-08-29T04:43:57.973Z,44
2017-08-29T04:44:38.449Z,48
2017-08-29T04:45:18.906Z,48
2017-08-29T04:45:59.367Z,48
2017-08-29T04:46:39.806Z,52
2017-08-29T04:47:20.261Z,56
2017-08-29T04:48:00.714Z,60
2017-08-29T04:48:41.163Z,60
2017-08-29T04:49:21.610Z,60
2017-08-29T04:50:02.073Z,64
2017-08-29T04:50:42.529Z,64
2017-08-29T04:51:22.977Z,68
2017-08-29T04:52:03.441Z,72
2017-08-29T04:52:43.899Z,76
2017-08-29T04:54:56.665Z,84
2017-08-29T04:55:37.112Z,84
2017-08-29T04:56:17.553Z,88
2017-08-29T04:56:58.005Z,92
2017-08-29T04:57:38.451Z,92
2017-08-29T04:58:18.905Z,96
2017-08-29T04:58:59.364Z,100
2017-08-29T04:59:39.817Z,104
2017-08-29T05:00:20.271Z,108
2017-08-29T05:01:00.727Z,108
2017-08-29T05:01:41.182Z,112
2017-08-29T05:02:21.790Z,112
2017-08-29T05:03:02.242Z,116
2017-08-29T05:03:42.694Z,116
2017-08-29T05:04:23.131Z,124
2017-08-29T05:05:03.582Z,124
2017-08-29T05:05:44.037Z,128
2017-08-29T05:06:24.499Z,132
2017-08-29T05:07:04.953Z,132
2017-08-29T05:07:45.409Z,136
2017-08-29T05:08:25.861Z,140
2017-08-29T05:09:06.318Z,144
2017-08-29T05:09:46.776Z,144
2017-08-29T05:10:27.231Z,148
2017-08-29T05:11:07.685Z,148
2017-08-29T05:11:48.157Z,152
2017-08-29T05:12:28.612Z,156
2017-08-29T05:13:09.070Z,160
2017-08-29T05:13:49.528Z,164
2017-08-29T05:14:29.987Z,164
2017-08-29T05:15:10.433Z,168
2017-08-29T05:15:50.890Z,168
2017-08-29T05:16:31.346Z,172
2017-08-29T05:17:11.800Z,180
2017-08-29T05:17:52.249Z,180
2017-08-29T05:18:32.716Z,184
2017-08-29T05:19:13.163Z,184
2017-08-29T05:19:53.624Z,188
2017-08-29T05:20:34.081Z,192
2017-08-29T05:21:14.535Z,192
2017-08-29T05:21:54.986Z,196
2017-08-29T05:22:35.438Z,200
2017-08-29T05:23:15.887Z,200
2017-08-29T05:23:56.335Z,204
2017-08-29T05:24:36.787Z,208
2017-08-29T05:25:17.246Z,212
2017-08-29T05:25:57.730Z,216
2017-08-29T05:26:38.176Z,220
2017-08-29T05:27:18.634Z,220
2017-08-29T05:27:59.091Z,224
2017-08-29T05:28:39.546Z,232
2017-08-29T05:29:20.013Z,232
2017-08-29T05:30:00.466Z,240
2017-08-29T05:30:40.915Z,240
2017-08-29T05:31:21.522Z,244
2017-08-29T05:32:01.978Z,248
2017-08-29T05:32:42.430Z,252
2017-08-29T05:33:22.884Z,256
2017-08-29T05:34:03.353Z,260
2017-08-29T05:34:43.829Z,264
2017-08-29T05:35:24.267Z,268
2017-08-29T05:36:04.721Z,272
2017-08-29T05:36:45.195Z,280
2017-08-29T05:37:25.643Z,284
2017-08-29T05:38:06.093Z,288
2017-08-29T05:38:46.549Z,296
2017-08-29T05:39:27.011Z,300
2017-08-29T05:40:07.466Z,312
2017-08-29T05:40:47.922Z,316
2017-08-29T05:41:28.379Z,328
2017-08-29T05:42:08.831Z,336
2017-08-29T05:42:49.284Z,348
2017-08-29T05:43:29.738Z,356
2017-08-29T05:44:10.196Z,368
2017-08-29T05:44:50.657Z,380
2017-08-29T05:45:31.117Z,392
2017-08-29T05:46:11.567Z,404
2017-08-29T05:46:52.029Z,416
2017-08-29T05:47:32.483Z,428
2017-08-29T05:48:12.935Z,436
2017-08-29T05:48:53.410Z,448
2017-08-29T05:49:33.883Z,460
2017-08-29T05:50:14.335Z,468
2017-08-29T05:50:54.807Z,480
2017-08-29T05:51:35.255Z,488
2017-08-29T05:52:15.707Z,496
2017-08-29T05:52:56.161Z,504
2017-08-29T05:53:36.613Z,512
2017-08-29T05:54:17.080Z,520
2017-08-29T05:54:57.538Z,524
2017-08-29T05:55:37.993Z,532
2017-08-29T05:56:18.447Z,540
2017-08-29T05:56:58.897Z,548
2017-08-29T05:57:39.349Z,552
2017-08-29T05:58:19.800Z,560
2017-08-29T05:59:00.255Z,568
2017-08-29T05:59:40.714Z,576
2017-08-29T06:00:21.166Z,580
2017-08-29T06:01:01.623Z,588
2017-08-29T06:01:42.071Z,596
2017-08-29T06:02:22.520Z,604
2017-08-29T06:03:02.978Z,608
2017-08-29T06:03:43.427Z,612
2017-08-29T06:04:23.886Z,620
2017-08-29T06:05:04.342Z,632
2017-08-29T06:05:44.801Z,636
2017-08-29T06:06:25.253Z,644
2017-08-29T06:07:05.704Z,652
2017-08-29T06:07:46.158Z,660
2017-08-29T06:08:26.613Z,668
2017-08-29T06:09:07.071Z,676
2017-08-29T06:09:47.551Z,680
2017-08-29T06:10:28.009Z,688
2017-08-29T06:11:08.483Z,696
2017-08-29T06:11:48.904Z,704
2017-08-29T06:12:29.359Z,716
2017-08-29T06:13:09.812Z,724
2017-08-29T06:13:50.266Z,732
2017-08-29T06:14:30.721Z,740
2017-08-29T06:15:11.173Z,752
2017-08-29T06:15:51.644Z,756
2017-08-29T06:16:32.099Z,768
2017-08-29T06:17:12.550Z,780
2017-08-29T06:17:53.005Z,788
2017-08-29T06:18:33.458Z,800
2017-08-29T06:19:13.918Z,816
2017-08-29T06:19:54.359Z,828
2017-08-29T06:20:34.808Z,836
2017-08-29T06:21:15.263Z,844
2017-08-29T06:21:55.718Z,776
2017-08-29T06:22:36.172Z,676
2017-08-29T06:23:16.626Z,676
2017-08-29T06:23:57.088Z,724
2017-08-29T06:24:37.543Z,752
2017-08-29T06:25:17.998Z,792
2017-08-29T06:25:58.451Z,824
2017-08-29T06:26:38.904Z,836
2017-08-29T06:27:19.515Z,872
2017-08-29T06:27:59.964Z,912
2017-08-29T06:28:40.432Z,960
2017-08-29T06:29:20.879Z,984
2017-08-29T06:30:01.327Z,1000
2017-08-29T06:30:41.773Z,1016
2017-08-29T06:31:22.218Z,1028
2017-08-29T06:32:02.669Z,1044
2017-08-29T06:32:43.126Z,1060
2017-08-29T06:33:23.594Z,1072
2017-08-29T06:34:04.077Z,1088
2017-08-29T06:34:44.532Z,1108
2017-08-29T06:35:24.994Z,1120
2017-08-29T06:36:05.442Z,1132
2017-08-29T06:36:45.896Z,1148
2017-08-29T06:37:26.358Z,1164
2017-08-29T06:38:06.811Z,1180
2017-08-29T06:38:47.269Z,1192
2017-08-29T06:39:27.766Z,1204
2017-08-29T06:40:08.226Z,1200
2017-08-29T06:40:48.682Z,1208
2017-08-29T06:41:29.145Z,1216
2017-08-29T06:42:09.604Z,1232
2017-08-29T06:44:42.672Z,1336
2017-08-29T06:45:23.121Z,1348
2017-08-29T06:46:03.611Z,1368
2017-08-29T06:46:44.087Z,1380
2017-08-29T06:47:24.535Z,1396
2017-08-29T06:48:04.993Z,1412
2017-08-29T06:48:45.451Z,1424
2017-08-29T06:49:25.900Z,1440
2017-08-29T06:50:06.350Z,1452
2017-08-29T06:50:46.798Z,1468
2017-08-29T06:51:27.254Z,1484
2017-08-29T06:52:07.706Z,1500
2017-08-29T06:52:48.159Z,1512
2017-08-29T06:53:28.615Z,1532
2017-08-29T06:54:09.067Z,1548
2017-08-29T06:54:49.518Z,1564
2017-08-29T06:55:29.979Z,1576
2017-08-29T06:56:10.422Z,1592
2017-08-29T06:56:50.877Z,1604
2017-08-29T06:57:31.335Z,1612
2017-08-29T06:58:11.781Z,1616
2017-08-29T06:58:52.238Z,1632
2017-08-29T06:59:32.686Z,1652
2017-08-29T07:00:13.128Z,1660
2017-08-29T07:00:53.585Z,1672
2017-08-29T07:01:34.045Z,1692
2017-08-29T07:02:14.496Z,1712
2017-08-29T07:02:54.954Z,1732
2017-08-29T07:03:35.407Z,1748
2017-08-29T07:04:15.861Z,1760
2017-08-29T07:04:56.308Z,1764
2017-08-29T07:05:36.783Z,1788
2017-08-29T07:06:17.337Z,1820
2017-08-29T07:06:57.795Z,1844
2017-08-29T07:07:38.243Z,1868
2017-08-29T07:08:18.771Z,1880
2017-08-29T07:08:59.224Z,1880
2017-08-29T07:09:39.679Z,1864
2017-08-29T07:10:20.138Z,1856
2017-08-29T07:11:00.601Z,1772
2017-08-29T07:11:41.048Z,1696
2017-08-29T07:12:21.497Z,1636
2017-08-29T07:13:02.081Z,1588
2017-08-29T07:13:42.547Z,1544
2017-08-29T07:14:22.999Z,1572
2017-08-29T07:15:03.460Z,1716
2017-08-29T07:15:43.892Z,1860
2017-08-29T07:16:24.348Z,2012
2017-08-29T07:17:04.816Z,2052
2017-08-29T07:17:45.243Z,2096
2017-08-29T07:18:25.696Z,2116
2017-08-29T07:19:06.221Z,2120
2017-08-29T07:19:46.677Z,2152
2017-08-29T07:20:27.129Z,2172
2017-08-29T07:21:07.582Z,2208
2017-08-29T07:21:48.036Z,2212
2017-08-29T07:22:28.494Z,2228
2017-08-29T07:23:08.949Z,2248
2017-08-29T07:23:49.401Z,2256
2017-08-29T07:24:29.848Z,2272
2017-08-29T07:25:10.302Z,2288
2017-08-29T07:25:50.756Z,2304
2017-08-29T07:26:31.212Z,2320
2017-08-29T07:27:11.668Z,2336
2017-08-29T07:27:52.115Z,2352
2017-08-29T07:28:32.578Z,2364
2017-08-29T07:29:13.046Z,2380
2017-08-29T07:29:53.449Z,2400
2017-08-29T07:30:33.896Z,2412
2017-08-29T07:31:14.362Z,2428
2017-08-29T07:31:54.818Z,2436
2017-08-29T07:32:35.267Z,2452
2017-08-29T07:33:15.722Z,2472
2017-08-29T07:33:56.176Z,2484
2017-08-29T07:34:36.638Z,2496
2017-08-29T07:35:17.097Z,2512
2017-08-29T07:35:57.555Z,2532
2017-08-29T07:36:38.010Z,2548
2017-08-29T07:37:18.465Z,2564
2017-08-29T07:37:58.917Z,2580
2017-08-29T07:38:39.375Z,2596
2017-08-29T07:39:19.849Z,2608
2017-08-29T07:40:00.298Z,2628
2017-08-29T07:40:40.746Z,2644
2017-08-29T07:41:21.306Z,2660
2017-08-29T07:42:01.764Z,2672
2017-08-29T07:42:42.217Z,2684
2017-08-29T07:43:22.668Z,2700
2017-08-29T07:44:03.119Z,2716
2017-08-29T07:44:43.573Z,2728
2017-08-29T07:45:24.028Z,2744
2017-08-29T07:46:04.492Z,2756
2017-08-29T07:46:44.933Z,2772
2017-08-29T07:47:25.397Z,2788
2017-08-29T07:48:05.842Z,2804
2017-08-29T07:48:46.295Z,2816
2017-08-29T07:49:26.753Z,2832
2017-08-29T07:50:07.209Z,2848
2017-08-29T07:50:47.675Z,2868
2017-08-29T07:51:28.131Z,2884
2017-08-29T07:52:08.589Z,2896
2017-08-29T07:52:49.048Z,2912
2017-08-29T07:53:29.488Z,2920
2017-08-29T07:54:09.940Z,2936
2017-08-29T07:54:50.402Z,2952
2017-08-29T07:55:30.855Z,2964
2017-08-29T07:56:11.307Z,2980
2017-08-29T07:56:51.757Z,3000
2017-08-29T07:57:32.215Z,3016
2017-08-29T07:58:12.673Z,3032
2017-08-29T07:58:53.116Z,3048
2017-08-29T07:59:33.570Z,3068
2017-08-29T08:00:14.029Z,3084
2017-08-29T08:00:54.476Z,3100
2017-08-29T08:01:34.929Z,3116
2017-08-29T08:02:15.388Z,3128
2017-08-29T08:02:55.838Z,3140
2017-08-29T08:03:36.277Z,3152
2017-08-29T08:04:16.734Z,3168
2017-08-29T08:04:57.188Z,3176
2017-08-29T08:05:37.675Z,3192
2017-08-29T08:06:18.127Z,3204
2017-08-29T08:06:58.584Z,3212
2017-08-29T08:07:39.046Z,3224
2017-08-29T08:08:19.546Z,3240
2017-08-29T08:09:00.013Z,3256
2017-08-29T08:09:40.467Z,3268
2017-08-29T08:10:20.928Z,3280
2017-08-29T08:11:01.385Z,3300
2017-08-29T08:11:41.840Z,3308
2017-08-29T08:13:59.838Z,3352
2017-08-29T08:14:40.286Z,3368
2017-08-29T08:15:20.747Z,3380
2017-08-29T08:16:01.205Z,3396
2017-08-29T08:16:41.654Z,3412
2017-08-29T08:17:22.120Z,3428
2017-08-29T08:18:02.570Z,3444
2017-08-29T08:18:43.021Z,3460
2017-08-29T08:19:23.468Z,3468
2017-08-29T08:20:03.924Z,3480
2017-08-29T08:20:44.373Z,3492
2017-08-29T08:21:24.832Z,3500
2017-08-29T08:22:05.328Z,3512
2017-08-29T08:22:45.791Z,3524
2017-08-29T08:23:26.246Z,3536
2017-08-29T08:24:06.729Z,3548
2017-08-29T08:24:47.189Z,3564
2017-08-29T08:25:27.640Z,3572
2017-08-29T08:26:08.096Z,3592
2017-08-29T08:26:48.543Z,3608
2017-08-29T08:27:29.000Z,3616
2017-08-29T08:28:09.454Z,3632
2017-08-29T08:28:49.908Z,3644
2017-08-29T08:29:30.370Z,3656
2017-08-29T08:30:10.825Z,3668
2017-08-29T08:30:51.280Z,3680
2017-08-29T08:31:31.744Z,3688
2017-08-29T08:32:12.198Z,3700
2017-08-29T08:32:52.643Z,3708
2017-08-29T08:33:33.093Z,3724
2017-08-29T08:34:13.574Z,3736
2017-08-29T08:34:54.020Z,3748
2017-08-29T08:35:34.473Z,3760
2017-08-29T08:36:14.912Z,3772
2017-08-29T08:36:55.387Z,3780
2017-08-29T08:37:35.844Z,3796
2017-08-29T08:38:16.297Z,3808
2017-08-29T08:38:56.750Z,3820
2017-08-29T08:39:37.208Z,3832
2017-08-29T08:40:17.662Z,3836
2017-08-29T08:40:58.114Z,3856
2017-08-29T08:41:38.581Z,3868
2017-08-29T08:44:06.700Z,3916
2017-08-29T08:44:47.158Z,3924
2017-08-29T08:45:27.620Z,3936
2017-08-29T08:46:08.059Z,3948
2017-08-29T08:46:48.540Z,3960
2017-08-29T08:47:28.986Z,3968
2017-08-29T08:48:09.443Z,3972
2017-08-29T08:48:49.891Z,3992
2017-08-29T08:49:30.342Z,4000
2017-08-29T08:50:10.810Z,4008
2017-08-29T08:50:51.251Z,4016
2017-08-29T08:51:31.710Z,4024
2017-08-29T08:52:12.158Z,4036
2017-08-29T08:52:52.612Z,4044
2017-08-29T08:53:33.066Z,4056
2017-08-29T08:54:13.535Z,4060
2017-08-29T08:54:53.988Z,4072
2017-08-29T08:55:34.442Z,4072
2017-08-29T08:56:14.906Z,4092
2017-08-29T08:56:55.367Z,4104
2017-08-29T08:57:35.808Z,4116
2017-08-29T08:58:16.251Z,4128
2017-08-29T08:58:56.707Z,4140
2017-08-29T08:59:37.158Z,4140
2017-08-29T09:00:17.622Z,4148
2017-08-29T09:00:58.065Z,4152
2017-08-29T09:01:38.527Z,4164
2017-08-29T09:02:18.982Z,4180
2017-08-29T09:02:59.429Z,4192
2017-08-29T09:03:39.886Z,4200
2017-08-29T09:04:20.339Z,4192
2017-08-29T09:05:00.789Z,4160
2017-08-29T09:05:41.247Z,4188
2017-08-29T09:06:21.711Z,4240
2017-08-29T09:07:02.171Z,4252
2017-08-29T09:07:42.622Z,4252
2017-08-29T09:08:23.075Z,4256
2017-08-29T09:09:03.535Z,4256
2017-08-29T09:09:43.996Z,4260
2017-08-29T09:10:24.447Z,4272
2017-08-29T09:11:04.908Z,4276
2017-08-29T09:11:45.358Z,4280
2017-08-29T09:12:25.829Z,4288
2017-08-29T09:13:06.328Z,4300
2017-08-29T09:13:46.784Z,4304
2017-08-29T09:14:27.241Z,4316
2017-08-29T09:15:07.699Z,4328
2017-08-29T09:15:48.143Z,4336
2017-08-29T09:16:28.597Z,4344
2017-08-29T09:17:09.048Z,4352
2017-08-29T09:17:49.507Z,4360
2017-08-29T09:18:29.965Z,4380
2017-08-29T09:19:10.416Z,4396
2017-08-29T09:19:50.866Z,4412
2017-08-29T09:20:31.326Z,4432
2017-08-29T09:21:11.772Z,4448
2017-08-29T09:21:52.232Z,4472
2017-08-29T09:22:32.693Z,4436
2017-08-29T09:23:13.172Z,3952
2017-08-29T09:23:53.597Z,3500
2017-08-29T09:24:34.051Z,3428
2017-08-29T09:25:14.498Z,3812
2017-08-29T09:25:54.957Z,3956
2017-08-29T09:26:35.425Z,3988
2017-08-29T09:27:15.880Z,4132
2017-08-29T09:27:56.342Z,4232
2017-08-29T09:28:36.798Z,4232
2017-08-29T09:29:17.253Z,4368
2017-08-29T09:29:57.702Z,4536
2017-08-29T09:30:38.231Z,4444
2017-08-29T09:31:18.770Z,4520
2017-08-29T09:33:16.463Z,4520
2017-08-29T09:33:56.914Z,4524
2017-08-29T09:34:37.368Z,4524
2017-08-29T09:35:17.822Z,4524
2017-08-29T09:35:58.282Z,4528
2017-08-29T09:36:38.737Z,4532
2017-08-29T09:37:19.196Z,4528
2017-08-29T09:37:59.649Z,4536
2017-08-29T09:38:40.104Z,4548
2017-08-29T09:39:20.563Z,4556
2017-08-29T09:40:01.012Z,4564
2017-08-29T09:40:41.503Z,4568
2017-08-29T09:41:21.952Z,4572
2017-08-29T09:42:02.420Z,4584
2017-08-29T09:42:42.856Z,4600
2017-08-29T09:43:23.312Z,4608